Time;durP1;ratioP1;P1;durP2;ratioP2;P2;SDS_P1;SDS_P2;PMS_P1;PMS_P2;Temp;Humidity;BMP_temperature;BMP_pressure;BME280_temperature;BME280_humidity;BME280_pressure;Samples;Min_cycle;Max_cycle;Signal;HPM_P1;HPM_P2
2023/07/07 00:01:52;;;;;;;9.55;3.95;;;;;;;16.21;79.56;101647.16;3548690;40;20135;-70
2023/07/07 00:04:21;;;;;;;5.20;3.65;;;;;;;16.21;79.65;101658.00;3548345;40;20113;-71
2023/07/07 00:06:47;;;;;;;3.95;3.55;;;;;;;16.18;80.29;101659.09;3549353;40;20340;-71
2023/07/07 00:09:13;;;;;;;4.20;3.65;;;;;;;16.14;80.40;101657.59;3547367;40;20091;-71
2023/07/07 00:11:39;;;;;;;5.22;3.70;;;;;;;16.10;80.35;101656.06;3547690;40;20372;-71
2023/07/07 00:14:04;;;;;;;5.05;3.90;;;;;;;15.84;81.13;101621.81;3548468;40;20049;-71
2023/07/07 00:16:30;;;;;;;4.43;3.70;;;;;;;16.02;81.35;101659.31;3545551;40;20127;-71
2023/07/07 00:18:58;;;;;;;7.03;4.40;;;;;;;15.98;81.40;101656.91;3547331;40;20120;-71
2023/07/07 00:21:25;;;;;;;4.45;3.80;;;;;;;15.77;81.75;101632.22;3548817;40;20065;-72
2023/07/07 00:23:53;;;;;;;5.72;4.00;;;;;;;15.82;81.92;101645.44;3547983;40;20506;-71
2023/07/07 00:26:21;;;;;;;5.68;3.90;;;;;;;15.87;81.55;101663.13;3548067;40;20077;-70
2023/07/07 00:28:48;;;;;;;5.80;4.00;;;;;;;15.54;81.37;101607.56;3547977;40;20053;-71
2023/07/07 00:31:17;;;;;;;6.95;4.40;;;;;;;15.82;81.10;101648.16;3548182;40;20061;-70
2023/07/07 00:33:43;;;;;;;6.85;4.10;;;;;;;15.78;80.92;101644.78;3548102;40;20143;-70
2023/07/07 00:36:09;;;;;;;5.72;4.03;;;;;;;15.78;80.41;101655.63;3546899;40;20072;-70
2023/07/07 00:38:34;;;;;;;6.70;4.40;;;;;;;15.77;80.68;101654.78;3547971;40;20071;-71
2023/07/07 00:41:05;;;;;;;6.93;4.18;;;;;;;15.78;80.29;101658.34;3548166;40;20075;-70
2023/07/07 00:43:31;;;;;;;7.13;4.00;;;;;;;15.69;79.65;101640.00;3549510;40;20054;-69
2023/07/07 00:45:59;;;;;;;6.72;4.13;;;;;;;15.31;79.90;101581.22;3549235;40;20475;-71
2023/07/07 00:48:45;;;;;;;5.65;4.30;;;;;;;15.72;79.56;101650.66;3547356;40;20102;-71
2023/07/07 00:51:33;;;;;;;5.68;4.13;;;;;;;15.72;79.78;101656.06;3545586;40;20439;-71
2023/07/07 00:54:03;;;;;;;6.53;4.05;;;;;;;15.70;79.57;101650.75;3545307;40;20323;-70
2023/07/07 00:56:38;;;;;;;5.45;4.10;;;;;;;15.68;79.34;101650.00;3537819;40;20102;-70
2023/07/07 00:59:14;;;;;;;6.57;4.30;;;;;;;15.62;79.06;101644.97;3546613;40;20125;-70
2023/07/07 01:01:41;;;;;;;7.22;4.70;;;;;;;15.64;79.60;101655.72;3544044;40;20411;-70
2023/07/07 01:04:16;;;;;;;6.88;4.32;;;;;;;15.58;79.42;101653.44;3550926;40;20178;-70
2023/07/07 01:06:51;;;;;;;7.40;4.70;;;;;;;15.59;79.62;101669.56;3547860;40;20084;-71
2023/07/07 01:09:17;;;;;;;7.07;4.47;;;;;;;15.59;79.27;101666.00;3547756;40;20053;-70
2023/07/07 01:11:47;;;;;;;6.22;4.75;;;;;;;15.47;79.53;101648.75;3547864;40;20065;-71
2023/07/07 01:14:27;;;;;;;5.82;4.22;;;;;;;15.52;79.34;101663.72;3547164;40;20321;-71
2023/07/07 01:17:54;;;;;;;5.80;4.43;;;;;;;15.48;79.93;101669.47;3545619;40;20054;-72
2023/07/07 01:21:01;;;;;;;6.95;4.55;;;;;;;15.40;80.15;101656.44;3541782;40;20129;-71
2023/07/07 01:23:35;;;;;;;5.55;4.60;;;;;;;15.44;80.14;101667.91;3548361;40;20321;-70
2023/07/07 01:26:51;;;;;;;5.28;4.57;;;;;;;15.37;80.08;101667.47;3547101;40;20384;-70
2023/07/07 01:29:50;;;;;;;7.97;4.82;;;;;;;14.78;80.76;101566.81;3546245;40;20052;-70
2023/07/07 01:32:23;;;;;;;6.28;4.43;;;;;;;15.32;80.84;101658.81;3547736;40;20061;-71
2023/07/07 01:34:49;;;;;;;8.32;5.20;;;;;;;14.96;80.96;101611.56;3547218;40;20315;-71
2023/07/07 01:37:15;;;;;;;5.82;4.30;;;;;;;15.27;81.04;101660.97;3546407;40;20053;-70
2023/07/07 01:39:44;;;;;;;5.43;4.50;;;;;;;14.97;80.43;101607.91;3546119;40;20455;-70
2023/07/07 01:42:24;;;;;;;6.00;4.75;;;;;;;15.18;79.91;101657.03;3546642;40;20144;-72
2023/07/07 01:45:16;;;;;;;7.00;4.57;;;;;;;14.98;80.18;101636.72;3547014;40;20061;-71
2023/07/07 01:47:58;;;;;;;6.63;4.35;;;;;;;14.88;81.02;101611.25;3543882;40;20088;-71
2023/07/07 01:50:32;;;;;;;6.82;4.35;;;;;;;15.15;80.17;101659.94;3545862;40;20087;-72
2023/07/07 01:53:15;;;;;;;;;;;;;;;15.11;80.16;101662.97;3546207;40;20128;-72
2023/07/07 01:55:50;;;;;;;7.00;4.78;;;;;;;15.08;80.79;101662.19;3547370;40;19940;-72
2023/07/07 01:58:20;;;;;;;8.45;5.32;;;;;;;14.73;80.96;101615.84;3547812;40;20064;-73
2023/07/07 02:00:50;;;;;;;8.10;5.18;;;;;;;14.95;80.67;101649.59;3547445;40;20061;-72
2023/07/07 02:03:18;;;;;;;5.05;4.55;;;;;;;15.01;80.39;101665.44;3549171;40;20289;-71
2023/07/07 02:05:46;;;;;;;7.70;4.72;;;;;;;14.99;80.31;101657.41;3547338;40;20381;-72
2023/07/07 02:08:13;;;;;;;5.43;4.60;;;;;;;14.82;80.20;101641.44;3547054;40;20083;-71
2023/07/07 02:10:38;;;;;;;6.10;4.47;;;;;;;14.59;80.09;101605.94;3548330;40;20323;-71
2023/07/07 02:13:04;;;;;;;7.07;4.35;;;;;;;14.94;80.13;101656.84;3547213;40;20050;-71
2023/07/07 02:15:30;;;;;;;6.63;4.72;;;;;;;14.85;80.54;101646.66;3544896;40;20143;-71
2023/07/07 02:17:57;;;;;;;6.90;5.20;;;;;;;14.68;80.57;101614.41;3545623;40;20113;-71
2023/07/07 02:20:23;;;;;;;6.25;4.30;;;;;;;14.65;80.77;101614.59;3548109;40;20458;-71
2023/07/07 02:22:49;;;;;;;6.57;4.93;;;;;;;14.86;81.03;101664.63;3548896;40;20049;-71
2023/07/07 02:25:15;;;;;;;5.75;4.32;;;;;;;14.84;81.71;101647.59;3547168;40;20169;-71
2023/07/07 02:27:40;;;;;;;8.48;5.57;;;;;;;14.64;81.77;101627.28;3547284;40;20053;-70
2023/07/07 02:30:07;;;;;;;8.27;5.03;;;;;;;14.76;82.65;101652.66;3547083;40;20053;-71
2023/07/07 02:32:33;;;;;;;6.35;4.63;;;;;;;14.45;82.78;101608.66;3547098;40;20127;-70
2023/07/07 02:35:01;;;;;;;8.50;5.20;;;;;;;14.71;82.85;101660.22;3545522;40;20140;-71
2023/07/07 02:37:27;;;;;;;7.35;4.88;;;;;;;14.51;83.30;101624.50;3547805;40;20112;-71
2023/07/07 02:39:54;;;;;;;6.65;5.00;;;;;;;14.69;83.61;101654.91;3546971;40;20417;-71
2023/07/07 02:42:20;;;;;;;6.32;4.90;;;;;;;14.66;83.37;101648.84;3547545;40;20666;-72
2023/07/07 02:44:46;;;;;;;5.13;4.63;;;;;;;14.59;83.35;101642.97;3547341;40;20379;-72
2023/07/07 02:47:12;;;;;;;5.80;5.05;;;;;;;14.61;83.24;101659.94;3547063;40;20058;-71
2023/07/07 02:49:38;;;;;;;6.53;4.80;;;;;;;14.47;82.80;101641.88;3545225;40;20381;-72
2023/07/07 02:52:07;;;;;;;6.38;4.53;;;;;;;14.57;82.54;101661.13;3544393;40;20136;-72
2023/07/07 02:54:33;;;;;;;6.03;4.70;;;;;;;14.53;82.81;101665.88;3545478;40;20068;-72
2023/07/07 02:56:59;;;;;;;5.78;4.95;;;;;;;14.22;82.28;101617.41;3544651;40;20061;-72
2023/07/07 02:59:25;;;;;;;6.72;4.70;;;;;;;14.46;82.21;101667.22;3546663;40;20398;-72
2023/07/07 03:01:50;;;;;;;6.55;4.72;;;;;;;14.19;82.07;101633.81;3547390;40;20064;-73
2023/07/07 03:04:16;;;;;;;5.90;4.32;;;;;;;14.42;81.96;101681.00;3548850;40;20087;-73
2023/07/07 03:06:42;;;;;;;7.78;4.82;;;;;;;14.37;81.28;101673.22;3547012;40;20518;-72
2023/07/07 03:09:09;;;;;;;7.30;4.80;;;;;;;14.29;80.85;101667.41;3544920;40;20554;-72
2023/07/07 03:11:35;;;;;;;5.90;4.65;;;;;;;13.91;81.13;101611.25;3547917;40;20087;-72
2023/07/07 03:14:01;;;;;;;5.95;4.85;;;;;;;14.23;81.10;101667.81;3544994;40;20061;-72
2023/07/07 03:16:32;;;;;;;4.68;4.20;;;;;;;14.31;80.62;101687.13;3547126;40;20054;-72
2023/07/07 03:19:07;;;;;;;5.80;4.55;;;;;;;14.32;80.63;101686.16;3547228;40;20182;-72
2023/07/07 03:21:33;;;;;;;7.72;4.90;;;;;;;14.04;80.97;101635.66;3547618;40;20072;-72
2023/07/07 03:23:59;;;;;;;7.53;4.70;;;;;;;14.25;81.15;101668.59;3548587;40;20065;-72
2023/07/07 03:26:27;;;;;;;7.30;4.43;;;;;;;14.19;81.14;101656.31;3547681;40;20556;-72
2023/07/07 03:28:54;;;;;;;5.72;4.60;;;;;;;14.23;80.62;101654.28;3549230;40;20060;-71
2023/07/07 03:31:24;;;;;;;7.65;5.38;;;;;;;14.26;81.43;101673.03;3538141;40;20057;-71
2023/07/07 03:33:55;;;;;;;6.53;4.93;;;;;;;14.25;81.56;101682.97;3549204;40;20065;-71
2023/07/07 03:36:27;;;;;;;6.95;4.50;;;;;;;14.20;81.92;101679.69;3546293;40;20148;-72
2023/07/07 03:38:53;;;;;;;6.28;4.85;;;;;;;14.21;82.02;101677.84;3548677;40;20042;-72
2023/07/07 03:41:23;;;;;;;6.47;4.25;;;;;;;14.24;81.88;101680.34;3547930;40;20348;-71
2023/07/07 03:43:50;;;;;;;7.22;4.85;;;;;;;14.26;82.41;101676.59;3548111;40;20307;-73
2023/07/07 03:46:22;;;;;;;8.32;5.05;;;;;;;14.23;82.68;101675.91;3548540;40;20104;-72
2023/07/07 03:48:50;;;;;;;6.43;4.68;;;;;;;14.18;83.04;101673.53;3547842;40;20061;-73
2023/07/07 03:51:18;;;;;;;4.93;4.30;;;;;;;14.10;83.14;101668.56;3546418;40;20140;-73
2023/07/07 03:53:45;;;;;;;5.43;4.40;;;;;;;14.19;83.51;101677.09;3548414;40;20057;-73
2023/07/07 03:56:10;;;;;;;5.75;4.68;;;;;;;14.05;83.37;101643.69;3548306;40;20045;-73
2023/07/07 03:58:37;;;;;;;6.55;5.00;;;;;;;14.24;83.82;101675.84;3548632;40;20412;-72
2023/07/07 04:01:06;;;;;;;6.93;4.90;;;;;;;14.17;84.32;101666.34;3546492;40;20056;-72
2023/07/07 04:03:32;;;;;;;5.45;4.80;;;;;;;14.12;84.42;101655.84;3537497;40;20132;-73
2023/07/07 04:05:59;;;;;;;6.63;4.63;;;;;;;14.25;84.44;101679.41;3538851;40;20064;-73
2023/07/07 04:08:25;;;;;;;8.15;5.18;;;;;;;14.27;84.26;101675.63;3548537;40;20065;-72
2023/07/07 04:11:15;;;;;;;9.05;4.30;;;;;;;14.28;83.82;101676.50;3549878;40;20053;-72
2023/07/07 04:13:43;;;;;;;7.53;4.57;;;;;;;14.31;83.49;101677.19;3544162;40;20054;-72
2023/07/07 04:16:17;;;;;;;7.15;4.60;;;;;;;14.20;83.90;101663.44;3548285;40;20057;-72
2023/07/07 04:18:45;;;;;;;5.90;4.05;;;;;;;14.20;83.28;101662.59;3536749;40;20124;-72
2023/07/07 04:21:16;;;;;;;6.95;5.28;;;;;;;14.39;83.93;101682.06;3548443;40;20078;-71
2023/07/07 04:23:46;;;;;;;5.85;4.50;;;;;;;14.42;84.32;101689.13;3543913;40;20513;-72
2023/07/07 04:26:13;;;;;;;6.13;5.32;;;;;;;14.47;84.51;101687.88;3548387;40;20104;-72
2023/07/07 04:28:40;;;;;;;6.47;5.38;;;;;;;14.48;82.25;101684.19;3545873;40;20136;-72
2023/07/07 04:31:10;;;;;;;9.80;5.28;;;;;;;14.51;82.33;101678.63;3549108;40;20278;-72
2023/07/07 04:33:38;;;;;;;6.55;4.90;;;;;;;14.65;82.00;101695.78;3539846;40;20052;-72
2023/07/07 04:36:08;;;;;;;6.03;5.38;;;;;;;14.68;81.73;101703.72;3549023;40;20476;-72
2023/07/07 04:38:35;;;;;;;7.63;5.63;;;;;;;14.68;82.08;101684.75;3548439;40;20065;-72
2023/07/07 04:41:16;;;;;;;8.10;5.43;;;;;;;14.77;81.74;101712.09;3545580;40;20050;-71
2023/07/07 04:43:49;;;;;;;10.93;5.55;;;;;;;14.84;80.95;101696.31;3538832;40;20320;-71
2023/07/07 04:46:26;;;;;;;;;;;;;;;14.92;81.28;101687.72;3545180;40;20066;-68
2023/07/07 04:48:52;;;;;;;9.15;5.30;;;;;;;15.02;79.75;101692.41;3534451;40;20058;-68
2023/07/07 04:51:18;;;;;;;12.45;9.25;;;;;;;15.12;79.56;101683.66;3546664;40;20072;-68
2023/07/07 04:53:44;;;;;;;12.23;9.73;;;;;;;15.08;79.10;101678.44;3548294;40;20061;-68
2023/07/07 04:56:21;;;;;;;11.05;8.68;;;;;;;15.27;79.10;101688.03;3547823;40;20883;-69
2023/07/07 04:58:50;;;;;;;9.80;6.78;;;;;;;15.01;78.86;101639.22;3545782;40;20062;-69
2023/07/07 05:01:26;;;;;;;10.00;6.38;;;;;;;15.35;78.68;101683.00;3536112;40;20636;-68
2023/07/07 05:04:01;;;;;;;7.93;6.45;;;;;;;15.41;78.44;101690.66;3546524;40;20282;-69
2023/07/07 05:06:31;;;;;;;10.88;6.25;;;;;;;15.47;78.11;101684.84;3547261;40;20141;-67
2023/07/07 05:08:58;;;;;;;7.70;5.50;;;;;;;15.49;77.42;101682.03;3546821;40;20068;-68
2023/07/07 05:11:27;;;;;;;11.00;5.60;;;;;;;15.44;77.14;101652.53;3550333;40;20380;-67
2023/07/07 05:13:54;;;;;;;7.07;5.45;;;;;;;15.72;76.73;101688.59;3549479;40;20057;-67
2023/07/07 05:16:24;;;;;;;11.60;6.53;;;;;;;15.79;75.49;101700.72;3547157;40;20689;-68
2023/07/07 05:18:51;;;;;;;12.00;5.75;;;;;;;15.60;75.63;101652.31;3549168;40;20057;-69
2023/07/07 05:21:20;;;;;;;9.45;5.45;;;;;;;15.87;75.49;101682.09;3549215;40;20360;-68
2023/07/07 05:23:46;;;;;;;13.32;5.55;;;;;;;16.00;73.70;101695.66;3548657;40;20087;-68
2023/07/07 05:26:12;;;;;;;6.55;5.15;;;;;;;16.11;73.18;101694.88;3547599;40;20459;-67
2023/07/07 05:28:38;;;;;;;13.45;5.68;;;;;;;16.20;71.98;101700.50;3547519;40;20093;-67
2023/07/07 05:31:08;;;;;;;10.63;5.35;;;;;;;15.99;70.00;101645.13;3548389;40;20101;-67
2023/07/07 05:33:36;;;;;;;11.57;5.22;;;;;;;16.44;70.56;101703.31;3547609;40;20088;-67
2023/07/07 05:36:06;;;;;;;15.15;5.22;;;;;;;16.55;70.12;101698.94;3547380;40;20171;-67
2023/07/07 05:38:32;;;;;;;15.77;5.15;;;;;;;16.62;70.04;101702.97;3537853;40;20045;-67
2023/07/07 05:40:58;;;;;;;14.95;5.07;;;;;;;16.72;69.28;101698.59;3547026;40;20054;-67
2023/07/07 05:43:26;;;;;;;10.35;4.97;;;;;;;16.81;66.74;101702.50;3547711;40;20065;-67
2023/07/07 05:45:59;;;;;;;8.13;5.13;;;;;;;16.92;66.84;101706.16;3547803;40;20065;-67
2023/07/07 05:48:27;;;;;;;10.27;4.40;;;;;;;17.02;66.40;101705.47;3546524;40;20312;-66
2023/07/07 05:50:57;;;;;;;9.00;4.45;;;;;;;17.17;65.73;101713.31;3547106;40;20061;-68
2023/07/07 05:53:23;;;;;;;7.28;4.43;;;;;;;17.28;66.04;101715.22;3547962;40;20050;-67
2023/07/07 05:55:50;;;;;;;10.30;4.35;;;;;;;16.79;63.94;101621.16;3546182;40;20103;-68
2023/07/07 05:58:17;;;;;;;10.15;4.07;;;;;;;17.52;63.00;101719.78;3546372;40;20065;-67
2023/07/07 06:00:44;;;;;;;8.02;4.20;;;;;;;17.64;62.41;101705.25;3547590;40;20073;-69
2023/07/07 06:03:10;;;;;;;10.75;4.20;;;;;;;17.64;62.70;101694.38;3547822;40;20057;-69
2023/07/07 06:05:36;;;;;;;9.52;3.95;;;;;;;17.85;62.12;101714.44;3548441;40;20062;-69
2023/07/07 06:08:05;;;;;;;5.75;3.78;;;;;;;17.99;61.38;101716.09;3548269;40;20541;-68
2023/07/07 06:10:31;;;;;;;6.85;4.30;;;;;;;18.16;60.50;101712.03;3548336;40;20064;-69
2023/07/07 06:12:57;;;;;;;7.10;3.92;;;;;;;18.27;60.29;101708.47;3545540;40;20061;-67
2023/07/07 06:15:22;;;;;;;6.63;3.75;;;;;;;18.43;59.50;101719.00;3543868;40;20084;-67
2023/07/07 06:17:48;;;;;;;8.30;4.05;;;;;;;18.46;59.50;101696.97;3546233;40;20582;-68
2023/07/07 06:20:15;;;;;;;6.78;3.63;;;;;;;18.72;59.06;101720.22;3548559;40;20100;-68
2023/07/07 06:22:41;;;;;;;5.78;3.40;;;;;;;18.85;57.78;101717.38;3548831;40;20060;-67
2023/07/07 06:25:08;;;;;;;6.88;3.15;;;;;;;19.01;56.67;101715.09;3547281;40;20437;-67
2023/07/07 06:27:33;;;;;;;6.65;3.50;;;;;;;19.06;56.60;101695.66;3548927;40;20054;-68
2023/07/07 06:29:59;;;;;;;4.78;2.90;;;;;;;19.36;55.36;101718.56;3549054;40;20064;-68
2023/07/07 06:32:25;;;;;;;8.65;3.30;;;;;;;19.54;55.72;101711.56;3547442;40;20061;-68
2023/07/07 06:34:50;;;;;;;4.70;2.78;;;;;;;19.24;55.03;101641.41;3546202;40;20054;-68
2023/07/07 06:37:17;;;;;;;7.60;3.17;;;;;;;19.85;54.06;101718.00;3547271;40;20073;-68
2023/07/07 06:39:42;;;;;;;8.18;3.50;;;;;;;19.97;52.03;101724.22;3544589;40;20457;-68
2023/07/07 06:42:09;;;;;;;5.22;3.10;;;;;;;20.13;52.97;101719.16;3543525;40;20405;-68
2023/07/07 06:44:38;;;;;;;3.63;2.80;;;;;;;20.31;52.58;101711.19;3546303;40;20053;-68
2023/07/07 06:47:05;;;;;;;6.53;3.38;;;;;;;20.48;52.38;101717.88;3542313;40;20495;-68
2023/07/07 06:49:31;;;;;;;7.15;3.17;;;;;;;20.67;52.85;101722.59;3544599;40;20208;-70
2023/07/07 06:51:56;;;;;;;6.25;2.97;;;;;;;20.82;51.45;101726.66;3544295;40;20132;-70
2023/07/07 06:54:22;;;;;;;4.82;2.90;;;;;;;21.05;51.35;101727.28;3546839;40;20105;-70
2023/07/07 06:56:48;;;;;;;4.80;2.50;;;;;;;21.12;51.21;101708.44;3545063;40;20054;-70
2023/07/07 06:59:13;;;;;;;6.00;3.10;;;;;;;21.38;48.84;101729.81;3545709;40;20425;-70
2023/07/07 07:01:40;;;;;;;6.13;3.00;;;;;;;21.52;49.04;101734.84;3544665;40;20080;-70
2023/07/07 07:04:05;;;;;;;9.05;2.65;;;;;;;21.68;49.64;101729.66;3544828;40;20124;-70
2023/07/07 07:06:31;;;;;;;6.20;3.20;;;;;;;21.80;47.86;101724.91;3545186;40;20053;-70
2023/07/07 07:08:57;;;;;;;3.10;2.40;;;;;;;21.97;47.69;101729.59;3545676;40;20432;-71
2023/07/07 07:11:22;;;;;;;4.28;2.72;;;;;;;22.12;48.19;101726.41;3547104;40;20061;-69
2023/07/07 07:13:48;;;;;;;5.57;2.75;;;;;;;22.29;47.64;101716.59;3547392;40;20862;-69
2023/07/07 07:16:16;;;;;;;3.38;2.45;;;;;;;22.54;46.92;101728.75;3547562;40;20069;-70
2023/07/07 07:18:42;;;;;;;5.97;2.30;;;;;;;22.66;46.20;101733.88;3547753;40;20308;-69
2023/07/07 07:21:08;;;;;;;3.85;2.28;;;;;;;22.67;45.83;101715.56;3548024;40;20490;-69
2023/07/07 07:23:33;;;;;;;3.58;2.63;;;;;;;22.85;45.75;101711.00;3547868;40;20121;-70
2023/07/07 07:25:59;;;;;;;4.90;2.63;;;;;;;23.17;45.41;101739.81;3546353;40;20060;-69
2023/07/07 07:28:24;;;;;;;3.60;2.75;;;;;;;23.29;43.85;101738.59;3547076;40;20065;-69
2023/07/07 07:30:53;;;;;;;12.07;9.75;;;;;;;23.39;42.95;101736.63;3537011;40;20241;-70
2023/07/07 07:33:22;;;;;;;4.20;2.55;;;;;;;23.48;42.26;101742.22;3551404;40;20546;-69
2023/07/07 07:35:48;;;;;;;3.63;2.40;;;;;;;23.61;42.15;101731.69;3547907;40;20060;-69
2023/07/07 07:38:18;;;;;;;2.65;2.10;;;;;;;23.45;41.43;101698.59;3547464;40;21312;-70
2023/07/07 07:40:44;;;;;;;3.70;2.40;;;;;;;23.77;40.94;101745.59;3544768;40;20527;-70
2023/07/07 07:43:10;;;;;;;2.75;2.10;;;;;;;23.92;41.81;101742.28;3546230;40;20056;-70
2023/07/07 07:45:37;;;;;;;3.08;2.30;;;;;;;23.96;42.10;101718.97;3546138;40;20072;-70
2023/07/07 07:48:04;;;;;;;4.40;2.28;;;;;;;24.08;42.27;101720.41;3544800;40;20065;-70
2023/07/07 07:50:31;;;;;;;2.83;2.13;;;;;;;24.35;40.79;101740.50;3545666;40;20639;-69
2023/07/07 07:52:57;;;;;;;3.97;2.30;;;;;;;24.30;41.01;101697.88;3546863;40;20060;-71
2023/07/07 07:55:23;;;;;;;3.28;2.22;;;;;;;24.66;40.77;101733.47;3535955;40;20321;-70
2023/07/07 07:57:48;;;;;;;3.70;2.53;;;;;;;24.76;39.70;101738.84;3545644;40;20062;-70
2023/07/07 08:00:15;;;;;;;3.75;2.20;;;;;;;24.51;39.92;101691.13;3545994;40;20093;-69
2023/07/07 08:02:41;;;;;;;2.72;2.10;;;;;;;24.57;41.14;101673.97;3546498;40;20069;-70
2023/07/07 08:05:08;;;;;;;3.90;2.10;;;;;;;25.13;40.23;101741.25;3547556;40;20053;-68
2023/07/07 08:07:33;;;;;;;3.53;2.20;;;;;;;25.32;39.58;101739.22;3547511;40;20336;-69
2023/07/07 08:09:59;;;;;;;2.83;2.30;;;;;;;25.36;38.00;101748.84;3548412;40;20061;-70
2023/07/07 08:12:25;;;;;;;3.85;1.95;;;;;;;25.45;38.00;101750.59;3546348;40;20076;-70
2023/07/07 08:14:51;;;;;;;3.25;2.15;;;;;;;25.64;38.55;101755.78;3546836;40;20061;-70
2023/07/07 08:17:18;;;;;;;5.35;2.10;;;;;;;25.77;39.07;101743.38;3550120;40;20053;-70
2023/07/07 08:19:47;;;;;;;2.75;2.10;;;;;;;25.88;40.15;101721.91;3538950;40;20325;-70
2023/07/07 08:22:24;;;;;;;3.22;1.70;;;;;;;26.15;38.04;101739.94;3546875;40;20441;-69
2023/07/07 08:24:54;;;;;;;2.10;1.90;;;;;;;26.30;38.51;101741.97;3546922;40;20512;-69
2023/07/07 08:27:24;;;;;;;3.25;2.10;;;;;;;26.36;37.44;101750.41;3547701;40;20056;-69
2023/07/07 08:29:50;;;;;;;3.17;1.90;;;;;;;26.38;37.86;101725.41;3548401;40;20384;-69
2023/07/07 08:32:22;;;;;;;6.20;2.20;;;;;;;26.67;35.91;101740.50;3545532;40;20120;-69
2023/07/07 08:34:50;;;;;;;2.47;2.28;;;;;;;26.71;36.82;101745.50;3547852;40;20119;-69
2023/07/07 08:37:17;;;;;;;6.07;2.33;;;;;;;26.82;35.40;101749.75;3548113;40;20050;-69
2023/07/07 08:39:44;;;;;;;3.53;1.98;;;;;;;26.81;34.74;101745.28;3546956;40;20068;-70
2023/07/07 08:42:44;;;;;;;4.15;2.20;;;;;;;26.96;36.11;101748.13;3550017;40;20200;-70
2023/07/07 08:45:20;;;;;;;3.15;2.00;;;;;;;27.09;35.80;101745.66;3538595;40;20411;-70
2023/07/07 08:48:10;;;;;;;2.78;1.85;;;;;;;27.12;33.85;101745.31;3545707;40;21457;-70
2023/07/07 08:50:53;;;;;;;2.33;2.00;;;;;;;27.20;34.41;101755.47;3544965;40;20069;-69
2023/07/07 08:54:11;;;;;;;3.72;1.80;;;;;;;27.30;33.44;101751.41;3547112;40;20062;-69
2023/07/07 08:57:08;;;;;;;7.18;2.17;;;;;;;27.30;33.89;101711.91;3545382;40;20443;-70
2023/07/07 08:59:48;;;;;;;5.88;2.30;;;;;;;27.63;34.85;101747.59;3545422;40;20057;-70
2023/07/07 09:02:44;;;;;;;6.13;2.38;;;;;;;27.77;35.24;101744.88;3545310;40;20057;-70
2023/07/07 09:05:55;;;;;;;3.85;1.75;;;;;;;27.90;34.50;101744.25;3546464;40;20198;-70
2023/07/07 09:09:06;;;;;;;3.63;2.15;;;;;;;27.95;32.55;101714.16;3545580;40;20113;-69
2023/07/07 09:11:41;;;;;;;6.25;2.22;;;;;;;27.89;33.62;101670.69;3548201;40;20652;-70
2023/07/07 09:14:11;;;;;;;3.83;2.05;;;;;;;28.34;30.61;101735.16;3547667;40;20121;-69
2023/07/07 09:16:42;;;;;;;2.63;2.00;;;;;;;28.53;31.13;101736.53;3536277;40;20046;-70
2023/07/07 09:19:19;;;;;;;3.95;2.13;;;;;;;28.51;33.90;101746.94;3544826;40;20057;-69
2023/07/07 09:22:01;;;;;;;7.05;1.98;;;;;;;28.41;32.55;101697.44;3547138;40;20143;-69
2023/07/07 09:24:42;;;;;;;4.53;2.30;;;;;;;28.69;29.23;101716.13;3537598;40;20057;-70
2023/07/07 09:27:21;;;;;;;4.22;2.22;;;;;;;28.79;28.75;101741.56;3543360;40;20096;-70
2023/07/07 09:30:19;;;;;;;2.42;1.77;;;;;;;28.91;30.84;101739.19;3535400;40;20133;-70
2023/07/07 09:32:46;;;;;;;5.40;2.60;;;;;;;29.09;30.90;101734.13;3545638;40;20601;-70
2023/07/07 09:35:15;;;;;;;4.57;1.98;;;;;;;29.19;30.73;101744.88;3544918;40;20410;-69
2023/07/07 09:37:54;;;;;;;7.00;2.50;;;;;;;29.28;30.51;101732.63;3544145;40;20065;-69
2023/07/07 09:40:39;;;;;;;4.10;2.20;;;;;;;29.30;30.38;101705.56;3535768;40;20072;-70
2023/07/07 09:43:37;;;;;;;6.85;2.67;;;;;;;29.57;30.23;101741.88;3546437;40;20053;-69
2023/07/07 09:46:43;;;;;;;5.75;2.55;;;;;;;29.60;30.92;101724.84;3545041;40;20053;-70
2023/07/07 09:49:38;;;;;;;3.83;2.22;;;;;;;29.75;30.05;101722.00;3535738;40;20058;-70
2023/07/07 09:52:52;;;;;;;3.17;2.20;;;;;;;29.94;29.94;101731.56;3545622;40;20054;-70
2023/07/07 09:55:30;;;;;;;6.50;2.40;;;;;;;29.92;30.23;101722.59;3543623;40;20060;-70
2023/07/07 09:58:25;;;;;;;3.05;1.98;;;;;;;29.83;29.29;101711.66;3545823;40;20077;-69
2023/07/07 10:01:01;;;;;;;5.95;2.00;;;;;;;30.03;28.47;101719.25;3545306;40;20053;-68
2023/07/07 10:03:40;;;;;;;4.63;2.17;;;;;;;29.99;30.29;101729.06;3546303;40;20161;-69
2023/07/07 10:06:34;;;;;;;3.83;2.17;;;;;;;30.06;29.62;101697.53;3546020;40;20058;-69
2023/07/07 10:09:03;;;;;;;3.42;1.98;;;;;;;30.35;30.00;101720.59;3544591;40;20442;-70
2023/07/07 10:11:36;;;;;;;3.70;1.85;;;;;;;30.40;27.38;101711.66;3535570;40;20357;-69
2023/07/07 10:14:05;;;;;;;3.03;2.10;;;;;;;30.50;28.99;101710.22;3545444;40;20297;-69
2023/07/07 10:16:32;;;;;;;4.82;2.10;;;;;;;30.53;28.00;101704.25;3540704;40;20064;-69
2023/07/07 10:19:01;;;;;;;2.70;2.08;;;;;;;30.71;28.10;101698.16;3543695;40;20073;-70
2023/07/07 10:21:27;;;;;;;2.42;1.98;;;;;;;30.84;29.99;101688.22;3546174;40;20344;-70
2023/07/07 10:23:53;;;;;;;2.60;2.20;;;;;;;30.97;30.45;101693.81;3544055;40;20097;-69
2023/07/07 10:26:19;;;;;;;2.38;2.00;;;;;;;30.91;28.27;101703.81;3545364;40;20129;-69
2023/07/07 10:28:47;;;;;;;5.15;2.10;;;;;;;30.70;27.95;101692.81;3536255;40;20073;-69
2023/07/07 10:31:16;;;;;;;2.70;2.10;;;;;;;30.59;30.37;101660.94;3546013;40;20391;-69
2023/07/07 10:33:43;;;;;;;4.90;2.03;;;;;;;30.90;28.10;101701.25;3547273;40;20792;-70
2023/07/07 10:36:31;;;;;;;3.80;2.20;;;;;;;30.98;28.59;101701.06;3546468;40;20053;-70
2023/07/07 10:38:58;;;;;;;2.80;2.13;;;;;;;31.03;28.87;101695.75;3546773;40;20060;-70
2023/07/07 10:41:26;;;;;;;4.70;2.00;;;;;;;31.11;28.29;101701.09;3544360;40;20388;-70
2023/07/07 10:43:53;;;;;;;3.25;2.00;;;;;;;31.09;27.62;101696.84;3548301;40;20155;-69
2023/07/07 10:46:19;;;;;;;2.33;2.00;;;;;;;31.10;29.93;101693.84;3546369;40;20064;-70
2023/07/07 10:48:46;;;;;;;3.58;2.10;;;;;;;31.17;27.85;101691.91;3546121;40;21303;-69
2023/07/07 10:51:59;;;;;;;2.65;2.30;;;;;;;31.21;27.20;101692.38;3545448;40;20054;-68
2023/07/07 10:54:49;;;;;;;2.10;1.90;;;;;;;31.37;28.21;101689.22;3507302;40;20462;-69
2023/07/07 10:57:49;;;;;;;5.40;3.95;;;;;;;31.49;26.40;101697.78;3547862;40;20101;-69
2023/07/07 11:01:01;;;;;;;3.42;1.98;;;;;;;31.58;26.08;101690.94;3547006;40;20132;-69
2023/07/07 11:03:58;;;;;;;2.75;2.13;;;;;;;31.79;26.17;101689.03;3544975;40;20057;-69
2023/07/07 11:06:40;;;;;;;3.95;2.40;;;;;;;31.68;24.74;101659.94;3534767;40;20133;-68
2023/07/07 11:09:29;;;;;;;3.60;2.30;;;;;;;31.80;24.31;101676.84;3544734;40;20426;-69
2023/07/07 11:12:05;;;;;;;2.35;2.10;;;;;;;31.86;26.65;101692.66;3546636;40;20511;-69
2023/07/07 11:14:53;;;;;;;2.55;2.17;;;;;;;31.90;24.62;101699.53;3546442;40;20057;-70
2023/07/07 11:17:37;;;;;;;2.92;2.10;;;;;;;31.85;24.67;101694.59;3542955;40;20053;-69
2023/07/07 11:20:36;;;;;;;3.65;2.38;;;;;;;31.78;23.88;101663.16;3545038;40;20053;-69
2023/07/07 11:23:30;;;;;;;3.80;2.42;;;;;;;32.10;24.14;101686.47;3546252;40;20059;-69
2023/07/07 11:26:37;;;;;;;2.65;2.17;;;;;;;32.17;24.70;101674.47;3546213;40;20128;-69
2023/07/07 11:29:27;;;;;;;3.17;2.05;;;;;;;32.38;24.74;101674.19;3545338;40;20072;-69
2023/07/07 11:32:07;;;;;;;2.25;1.90;;;;;;;32.63;24.02;101667.91;3546059;40;20273;-70
2023/07/07 11:34:42;;;;;;;3.67;2.20;;;;;;;32.77;24.71;101672.38;3546112;40;20438;-69
2023/07/07 11:37:41;;;;;;;2.83;2.10;;;;;;;32.69;23.55;101665.09;3541973;40;20064;-69
2023/07/07 11:40:43;;;;;;;3.58;2.38;;;;;;;32.85;24.26;101663.75;3545750;40;20053;-69
2023/07/07 11:43:35;;;;;;;3.35;2.10;;;;;;;32.93;22.67;101649.56;3543893;40;20420;-70
2023/07/07 11:46:20;;;;;;;4.80;2.30;;;;;;;33.22;22.56;101667.63;3536625;40;20133;-70
2023/07/07 11:49:17;;;;;;;5.00;2.42;;;;;;;33.08;22.64;101668.81;3547825;40;20057;-69
2023/07/07 11:52:08;;;;;;;3.53;2.72;;;;;;;33.10;22.37;101669.41;3548037;40;20119;-69